Time;durP1;ratioP1;P1;durP2;ratioP2;P2;SDS_P1;SDS_P2;PMS_P1;PMS_P2;Temp;Humidity;BMP_temperature;BMP_pressure;BME280_temperature;BME280_humidity;BME280_pressure;Samples;Min_cycle;Max_cycle;Signal;HPM_P1;HPM_P2
2021/06/29 00:01:49;;;;;;;7.07;5.03;;;;;;;-146.19;100.00;58918.88;4950832;28;20075;-59
2021/06/29 00:04:17;;;;;;;9.60;5.00;;;;;;;-146.19;100.00;58918.88;4950236;28;20098;-58
2021/06/29 00:06:46;;;;;;;6.57;5.00;;;;;;;-146.19;100.00;58918.88;4950067;28;20680;-59
2021/06/29 00:09:14;;;;;;;5.15;4.50;;;;;;;-146.19;100.00;58918.88;4945927;28;20066;-59
2021/06/29 00:11:43;;;;;;;6.22;4.90;;;;;;;-146.19;100.00;58918.88;4946906;28;20435;-60
2021/06/29 00:14:11;;;;;;;8.52;4.90;;;;;;;-146.19;100.00;58918.88;4945806;28;20074;-59
2021/06/29 00:16:41;;;;;;;5.97;4.93;;;;;;;-146.19;100.00;58918.88;4953322;28;20071;-58
2021/06/29 00:19:10;;;;;;;9.80;5.32;;;;;;;-146.19;100.00;58918.88;4952179;28;20074;-57
2021/06/29 00:21:38;;;;;;;7.32;5.72;;;;;;;-146.19;100.00;58918.88;4949704;28;20067;-60
2021/06/29 00:24:07;;;;;;;7.03;5.28;;;;;;;-146.19;100.00;58918.88;4948561;28;20453;-58
2021/06/29 00:26:36;;;;;;;8.98;5.20;;;;;;;-146.19;100.00;58918.88;4947921;28;20553;-57
2021/06/29 00:29:04;;;;;;;6.25;5.03;;;;;;;-146.19;100.00;58918.88;4948800;28;20069;-57
2021/06/29 00:31:32;;;;;;;6.78;5.75;;;;;;;-146.19;100.00;58918.88;4950552;28;20079;-58
2021/06/29 00:34:03;;;;;;;8.27;5.63;;;;;;;-146.19;100.00;58918.88;4939113;28;20071;-59
2021/06/29 00:36:31;;;;;;;7.82;5.40;;;;;;;-146.19;100.00;58918.88;4945853;28;20062;-59
2021/06/29 00:38:59;;;;;;;7.38;5.20;;;;;;;-146.19;100.00;58918.88;4950178;28;20063;-57
2021/06/29 00:41:28;;;;;;;6.68;5.30;;;;;;;-146.19;100.00;58918.88;4949837;28;20067;-59
2021/06/29 00:43:57;;;;;;;7.43;6.07;;;;;;;-146.19;100.00;58918.88;4946618;28;20524;-60
2021/06/29 00:46:25;;;;;;;8.00;5.57;;;;;;;-146.19;100.00;58918.88;4949516;29;20102;-57
2021/06/29 00:49:05;;;;;;;8.32;5.93;;;;;;;-146.19;100.00;58918.88;4943832;28;20035;-59
2021/06/29 00:51:35;;;;;;;6.50;5.22;;;;;;;-146.19;100.00;58918.88;4943523;28;20086;-60
2021/06/29 00:54:03;;;;;;;7.65;5.50;;;;;;;-146.19;100.00;58918.88;4950588;28;20059;-59
2021/06/29 00:56:32;;;;;;;7.03;5.72;;;;;;;-146.19;100.00;58918.88;4949299;28;20076;-56
2021/06/29 00:59:00;;;;;;;6.60;5.85;;;;;;;-146.19;100.00;58918.88;4945658;28;20086;-58
2021/06/29 01:01:29;;;;;;;7.22;5.53;;;;;;;-146.19;100.00;58918.88;4949036;28;20462;-59
2021/06/29 01:03:57;;;;;;;6.97;5.70;;;;;;;-146.19;100.00;58918.88;4948075;28;20063;-60
2021/06/29 01:06:28;;;;;;;9.20;6.30;;;;;;;-146.19;100.00;58918.88;4948971;28;20069;-56
2021/06/29 01:08:56;;;;;;;9.70;5.80;;;;;;;-146.19;100.00;58918.88;4948641;28;20059;-57
2021/06/29 01:11:25;;;;;;;8.45;5.75;;;;;;;-146.19;100.00;58918.88;4945139;28;20063;-56
2021/06/29 01:13:53;;;;;;;7.10;5.82;;;;;;;-146.19;100.00;58918.88;4944697;28;20470;-56
2021/06/29 01:16:21;;;;;;;8.55;5.93;;;;;;;-146.19;100.00;58918.88;4951320;28;20082;-58
2021/06/29 01:18:50;;;;;;;6.47;5.88;;;;;;;17.63;100.00;96287.66;4947745;28;20642;-58
2021/06/29 01:21:21;;;;;;;9.35;6.03;;;;;;;-146.19;100.00;58918.88;4951869;28;20059;-56
2021/06/29 01:23:53;;;;;;;7.40;5.50;;;;;;;-146.19;100.00;58918.88;4945274;28;20564;-58
2021/06/29 01:26:23;;;;;;;7.00;6.00;;;;;;;-146.19;100.00;58918.88;4945297;28;20517;-57
2021/06/29 01:28:57;;;;;;;7.05;6.20;;;;;;;-146.19;100.00;58918.88;4945530;28;20071;-56
2021/06/29 01:31:25;;;;;;;6.57;5.88;;;;;;;17.48;100.00;96277.09;4952001;28;20117;-55
2021/06/29 01:33:53;;;;;;;8.27;6.47;;;;;;;17.41;100.00;96267.38;4944979;28;20086;-57
2021/06/29 01:36:32;;;;;;;10.02;6.53;;;;;;;-146.19;100.00;58918.88;4948040;28;20540;-58
2021/06/29 01:39:02;;;;;;;11.43;7.50;;;;;;;17.56;100.00;96271.59;4942017;28;20090;-53
2021/06/29 01:41:30;;;;;;;10.00;7.25;;;;;;;17.39;100.00;96275.56;4949077;28;20446;-57
2021/06/29 01:44:02;;;;;;;12.00;7.13;;;;;;;17.47;100.00;96280.75;4944480;28;20066;-55
2021/06/29 01:46:31;;;;;;;8.85;7.25;;;;;;;17.53;100.00;96290.66;4946628;28;20093;-59
2021/06/29 01:49:00;;;;;;;9.88;7.95;;;;;;;17.49;100.00;96286.72;4946579;28;20678;-59
2021/06/29 01:51:30;;;;;;;8.93;8.02;;;;;;;17.56;100.00;96284.13;4947265;28;20067;-58
2021/06/29 01:53:58;;;;;;;9.55;8.15;;;;;;;17.65;100.00;96284.78;4939042;28;20078;-58
2021/06/29 01:56:28;;;;;;;9.45;8.52;;;;;;;17.61;100.00;96283.53;4951492;28;20063;-57
2021/06/29 01:58:59;;;;;;;10.43;8.80;;;;;;;17.59;100.00;96259.75;4947402;28;20055;-57
2021/06/29 02:01:27;;;;;;;8.27;7.50;;;;;;;17.58;100.00;96252.75;4949116;28;20083;-55
2021/06/29 02:03:56;;;;;;;11.65;8.30;;;;;;;17.61;100.00;96255.03;4943127;28;20075;-56
2021/06/29 02:06:24;;;;;;;11.75;8.48;;;;;;;17.59;100.00;96266.91;4949799;28;20070;-55
2021/06/29 02:08:54;;;;;;;10.18;8.98;;;;;;;17.59;100.00;96269.59;4945484;28;20086;-59
2021/06/29 02:11:22;;;;;;;10.73;8.82;;;;;;;17.61;100.00;96276.34;4947321;28;20078;-59
2021/06/29 02:13:51;;;;;;;11.38;8.82;;;;;;;17.52;100.00;96275.69;4945684;28;20086;-58
2021/06/29 02:16:19;;;;;;;9.98;8.57;;;;;;;17.47;100.00;96267.44;4946669;28;20055;-57
2021/06/29 02:18:48;;;;;;;11.90;9.15;;;;;;;17.61;100.00;96276.34;4945566;28;20063;-58
2021/06/29 02:21:16;;;;;;;10.27;9.25;;;;;;;-146.19;100.00;58918.88;4947317;28;20066;-56
2021/06/29 02:23:44;;;;;;;9.75;8.48;;;;;;;-146.19;100.00;58918.88;4942723;28;20074;-56
2021/06/29 02:26:14;;;;;;;10.65;8.95;;;;;;;-146.19;100.00;58918.88;4948057;28;20062;-58
2021/06/29 02:28:43;;;;;;;10.73;8.90;;;;;;;-146.19;100.00;58918.88;4951611;28;20074;-57
2021/06/29 02:31:13;;;;;;;9.40;8.50;;;;;;;-146.19;100.00;58918.88;4953438;28;20071;-54
2021/06/29 02:33:41;;;;;;;;;;;;;;;-146.19;100.00;58918.88;4949380;28;20074;-57
2021/06/29 02:36:10;;;;;;;14.02;9.35;;;;;;;-146.19;100.00;58918.88;4948681;28;19961;-58
2021/06/29 02:38:38;;;;;;;9.95;8.93;;;;;;;-146.19;100.00;58918.88;4952030;28;20160;-58
2021/06/29 02:41:07;;;;;;;11.23;9.90;;;;;;;-146.19;100.00;58918.88;4943285;28;20067;-57
2021/06/29 02:43:40;;;;;;;11.27;9.93;;;;;;;-146.19;100.00;58918.88;4948900;28;20071;-53
2021/06/29 02:46:08;;;;;;;10.48;9.38;;;;;;;-146.19;100.00;58918.88;4947628;28;20098;-55
2021/06/29 02:48:37;;;;;;;12.18;9.95;;;;;;;-146.19;100.00;58918.88;4952670;28;20066;-59
2021/06/29 02:51:06;;;;;;;11.77;9.52;;;;;;;-146.19;100.00;58918.88;4946038;28;20138;-56
2021/06/29 02:53:35;;;;;;;12.43;9.95;;;;;;;-146.19;100.00;58918.88;4951072;28;20081;-54
2021/06/29 02:56:03;;;;;;;11.95;10.75;;;;;;;-146.19;100.00;58918.88;4948085;28;20086;-55
2021/06/29 02:58:32;;;;;;;13.57;10.68;;;;;;;-146.19;100.00;58918.88;4955394;28;20102;-57
2021/06/29 03:01:03;;;;;;;13.20;10.38;;;;;;;-146.19;100.00;58918.88;4946483;28;20381;-55
2021/06/29 03:03:31;;;;;;;11.43;10.23;;;;;;;-146.19;100.00;58918.88;4950440;28;20071;-55
2021/06/29 03:05:59;;;;;;;12.40;10.25;;;;;;;-146.19;100.00;58918.88;4949654;28;20067;-59
2021/06/29 03:08:28;;;;;;;11.60;10.40;;;;;;;-146.19;100.00;58918.88;4950524;28;20074;-55
2021/06/29 03:10:56;;;;;;;14.52;10.45;;;;;;;-146.19;100.00;58918.88;4949568;28;20074;-57
2021/06/29 03:13:24;;;;;;;12.13;9.45;;;;;;;-146.19;100.00;58918.88;4954202;28;20075;-58
2021/06/29 03:15:53;;;;;;;12.05;9.48;;;;;;;-146.19;100.00;58918.88;4951719;28;20517;-55
2021/06/29 03:18:23;;;;;;;10.10;8.60;;;;;;;-146.19;100.00;58918.88;4946622;28;20454;-57
2021/06/29 03:20:52;;;;;;;11.27;9.23;;;;;;;-146.19;100.00;58918.88;4952858;28;20063;-58
2021/06/29 03:23:20;;;;;;;10.27;9.18;;;;;;;-146.19;100.00;58918.88;4948063;28;20063;-56
2021/06/29 03:25:49;;;;;;;10.15;9.15;;;;;;;-146.19;100.00;58918.88;4952340;28;20086;-57
2021/06/29 03:28:17;;;;;;;10.02;8.80;;;;;;;-146.19;100.00;58918.88;4951228;28;20082;-57
2021/06/29 03:30:46;;;;;;;9.40;8.40;;;;;;;-146.19;100.00;58918.88;4951957;28;20070;-56
2021/06/29 03:33:14;;;;;;;8.27;7.45;;;;;;;-146.19;100.00;58918.88;4948502;28;20070;-54
2021/06/29 03:35:44;;;;;;;9.82;8.40;;;;;;;-146.19;100.00;58918.88;4949795;28;20074;-58
2021/06/29 03:38:13;;;;;;;9.70;8.63;;;;;;;-146.19;100.00;58918.88;4941726;28;20077;-57
2021/06/29 03:40:42;;;;;;;10.02;8.32;;;;;;;-146.19;100.00;58918.88;4951920;28;20098;-57
2021/06/29 03:43:10;;;;;;;9.18;8.18;;;;;;;-146.19;100.00;58918.88;4950929;28;20078;-57
2021/06/29 03:45:38;;;;;;;9.05;8.15;;;;;;;-146.19;100.00;58918.88;4949835;28;20086;-57
2021/06/29 03:48:07;;;;;;;8.27;7.20;;;;;;;-146.19;100.00;58918.88;4949155;28;20457;-57
2021/06/29 03:50:36;;;;;;;8.38;6.88;;;;;;;-146.19;100.00;58918.88;4953084;28;20067;-54
2021/06/29 03:53:06;;;;;;;9.27;7.30;;;;;;;-146.19;100.00;58918.88;4945921;28;20075;-58
2021/06/29 03:55:35;;;;;;;7.85;7.00;;;;;;;-146.19;100.00;58918.88;4951282;28;20090;-55
2021/06/29 03:58:03;;;;;;;9.60;7.00;;;;;;;-146.19;100.00;58918.88;4948133;28;20098;-55
2021/06/29 04:00:32;;;;;;;8.93;7.38;;;;;;;-146.19;100.00;58918.88;4946918;28;20074;-56
2021/06/29 04:03:00;;;;;;;8.18;7.40;;;;;;;-146.19;100.00;58918.88;4947925;28;21436;-53
2021/06/29 04:05:29;;;;;;;11.55;7.20;;;;;;;-146.19;100.00;58918.88;4945304;28;20078;-58
2021/06/29 04:07:57;;;;;;;7.97;6.80;;;;;;;-146.19;100.00;58918.88;4953943;28;20066;-57
2021/06/29 04:10:27;;;;;;;8.98;7.10;;;;;;;-146.19;100.00;58918.88;4946560;28;20089;-59
2021/06/29 04:12:55;;;;;;;7.43;6.72;;;;;;;-146.19;100.00;58918.88;4948880;28;20082;-55
2021/06/29 04:15:23;;;;;;;8.05;6.57;;;;;;;-146.19;100.00;58918.88;4945720;28;20102;-59
2021/06/29 04:17:52;;;;;;;8.55;7.00;;;;;;;-146.19;100.00;58918.88;4948590;28;20065;-59
2021/06/29 04:20:20;;;;;;;8.23;6.80;;;;;;;-146.19;100.00;58918.88;4944877;28;20458;-60
2021/06/29 04:22:49;;;;;;;7.40;6.70;;;;;;;-146.19;100.00;58918.88;4952040;28;20458;-57
2021/06/29 04:25:17;;;;;;;7.10;6.30;;;;;;;-146.19;100.00;58918.88;4949388;28;20083;-56
2021/06/29 04:27:47;;;;;;;8.60;6.88;;;;;;;-146.19;100.00;58918.88;4946553;28;20126;-55
2021/06/29 04:30:16;;;;;;;9.13;6.72;;;;;;;-146.19;100.00;58918.88;4945432;28;20063;-60
2021/06/29 04:32:44;;;;;;;10.10;6.70;;;;;;;-146.19;100.00;58918.88;4952324;28;20067;-59
2021/06/29 04:35:14;;;;;;;9.27;6.45;;;;;;;-146.19;100.00;58918.88;4946652;28;20077;-58
2021/06/29 04:37:42;;;;;;;6.22;5.63;;;;;;;-146.19;100.00;58918.88;4949248;28;20094;-57
2021/06/29 04:40:12;;;;;;;7.53;5.90;;;;;;;-146.19;100.00;58918.88;4951162;28;20556;-54
2021/06/29 04:42:41;;;;;;;6.78;6.18;;;;;;;-146.19;100.00;58918.88;4948172;28;20064;-59
2021/06/29 04:45:13;;;;;;;6.57;5.75;;;;;;;-146.19;100.00;58918.88;4948256;28;20067;-57
2021/06/29 04:47:46;;;;;;;7.88;6.35;;;;;;;-146.19;100.00;58918.88;4948957;28;20074;-53
2021/06/29 04:50:15;;;;;;;8.05;6.00;;;;;;;-146.19;100.00;58918.88;4948840;28;20077;-59
2021/06/29 05:33:29;;;;;;;5.35;4.85;;;;;;;17.63;100.00;96277.00;5078200;27;24593;-63
2021/06/29 05:35:58;;;;;;;5.90;5.30;;;;;;;17.78;100.00;96283.09;5016526;28;20081;-62
2021/06/29 05:38:26;;;;;;;6.55;4.65;;;;;;;17.78;100.00;96282.25;5020811;28;20112;-62
2021/06/29 05:40:54;;;;;;;6.93;5.03;;;;;;;17.93;100.00;96295.53;5014448;28;20088;-62
2021/06/29 05:43:23;;;;;;;8.10;5.25;;;;;;;17.97;100.00;96297.59;5015752;28;20451;-61
2021/06/29 05:45:51;;;;;;;5.93;4.57;;;;;;;17.94;100.00;96295.31;5016719;28;20065;-62
2021/06/29 05:48:20;;;;;;;5.60;5.10;;;;;;;18.16;100.00;96292.56;5021780;28;20065;-61
2021/06/29 05:50:50;;;;;;;6.97;4.63;;;;;;;18.10;100.00;96304.03;5016385;28;20715;-62
2021/06/29 05:53:18;;;;;;;6.82;4.78;;;;;;;18.14;100.00;96303.47;5016628;28;20457;-62
2021/06/29 05:55:46;;;;;;;7.03;4.40;;;;;;;18.22;100.00;96305.13;5017309;28;20463;-62
2021/06/29 05:58:16;;;;;;;6.03;4.53;;;;;;;18.12;100.00;96297.47;5021852;28;20074;-62
2021/06/29 06:00:44;;;;;;;4.85;4.28;;;;;;;18.21;100.00;96298.16;5014983;28;22740;-62
2021/06/29 06:03:13;;;;;;;4.75;3.85;;;;;;;18.31;100.00;96303.97;5021359;28;20069;-63
2021/06/29 06:05:41;;;;;;;5.60;4.40;;;;;;;18.19;100.00;96308.19;5011077;28;20062;-61
2021/06/29 06:08:11;;;;;;;5.22;4.72;;;;;;;18.18;100.00;96306.56;5013151;28;20475;-62
2021/06/29 06:13:37;;;;;;;5.38;4.00;;;;;;;18.25;100.00;96302.91;5007676;28;20042;-59
2021/06/29 06:16:06;;;;;;;5.43;4.10;;;;;;;18.36;100.00;96296.19;5001609;28;20085;-59
2021/06/29 06:18:36;;;;;;;8.40;4.27;;;;;;;18.36;100.00;96296.19;5011178;28;20069;-60
2021/06/29 06:21:05;;;;;;;4.90;4.32;;;;;;;18.46;100.00;96287.81;5021494;28;20476;-60
2021/06/29 06:23:35;;;;;;;6.90;4.20;;;;;;;18.44;100.00;96293.38;4998744;28;20058;-60
2021/06/29 06:26:03;;;;;;;5.93;4.70;;;;;;;18.33;100.00;96296.56;5015088;28;20077;-61
2021/06/29 06:28:31;;;;;;;7.43;4.45;;;;;;;18.23;100.00;96299.59;5015341;28;20101;-61
2021/06/29 06:31:01;;;;;;;6.85;4.53;;;;;;;18.22;100.00;96292.63;4999909;28;20069;-60
2021/06/29 06:33:30;;;;;;;4.30;3.90;;;;;;;18.31;100.00;96284.47;5015064;28;20511;-59
2021/06/29 06:36:10;;;;;;;4.75;4.22;;;;;;;18.32;100.00;96276.25;5002125;28;20057;-60
2021/06/29 06:38:40;;;;;;;4.63;4.07;;;;;;;18.24;100.00;96273.75;5016136;28;20297;-59
2021/06/29 06:41:13;;;;;;;5.35;4.32;;;;;;;18.39;100.00;96273.63;4999729;28;20068;-59
2021/06/29 06:43:42;;;;;;;5.63;5.10;;;;;;;18.40;100.00;96288.59;4996710;28;20077;-59
2021/06/29 06:46:10;;;;;;;5.72;5.18;;;;;;;18.50;100.00;96291.72;4985385;28;20090;-61
2021/06/29 06:48:39;;;;;;;5.30;4.22;;;;;;;18.25;100.00;96299.41;4997761;28;20074;-60
2021/06/29 06:51:10;;;;;;;6.70;4.40;;;;;;;18.21;100.00;96277.63;4999380;28;20542;-60
2021/06/29 06:53:39;;;;;;;5.25;4.32;;;;;;;18.31;100.00;96263.94;4982652;28;20069;-60
2021/06/29 06:56:14;;;;;;;5.80;4.20;;;;;;;18.44;100.00;96263.16;4973251;28;20070;-60
2021/06/29 06:58:42;;;;;;;6.63;3.95;;;;;;;18.55;100.00;96257.25;4979104;28;20049;-59
2021/06/29 07:01:13;;;;;;;5.28;4.00;;;;;;;18.59;100.00;96263.84;5001241;28;20089;-60
2021/06/29 07:03:44;;;;;;;4.15;3.83;;;;;;;18.64;100.00;96261.38;4986858;28;20030;-60
2021/06/29 07:06:14;;;;;;;5.35;4.18;;;;;;;18.66;100.00;96259.34;4992338;28;20054;-61
2021/06/29 07:08:44;;;;;;;5.22;3.95;;;;;;;18.74;100.00;96240.50;4983927;28;20123;-60
2021/06/29 07:11:12;;;;;;;6.50;3.92;;;;;;;19.18;100.00;96235.66;4986462;28;20050;-60
2021/06/29 07:13:41;;;;;;;4.88;4.38;;;;;;;19.15;100.00;96223.50;4986996;28;20096;-61
2021/06/29 07:16:09;;;;;;;5.85;4.38;;;;;;;19.44;100.00;96216.97;4995282;28;20528;-61
2021/06/29 07:18:38;;;;;;;4.95;4.03;;;;;;;19.61;100.00;96204.00;4990559;28;20524;-60
2021/06/29 07:21:07;;;;;;;4.45;4.05;;;;;;;19.98;100.00;96203.53;4986312;28;20078;-60
2021/06/29 07:23:35;;;;;;;4.88;3.90;;;;;;;20.20;100.00;96196.88;4993772;28;20069;-59
2021/06/29 07:26:05;;;;;;;4.90;3.72;;;;;;;20.26;100.00;96196.00;4993317;28;20073;-60
2021/06/29 07:28:34;;;;;;;6.68;3.42;;;;;;;20.00;100.00;96198.81;5000692;28;20077;-61
2021/06/29 07:31:05;;;;;;;4.97;3.33;;;;;;;20.29;100.00;96202.81;4992440;28;20170;-61
2021/06/29 07:33:34;;;;;;;4.55;3.63;;;;;;;20.65;100.00;96196.91;5003562;28;20031;-60
2021/06/29 07:36:03;;;;;;;4.35;3.20;;;;;;;21.20;100.00;96180.28;4997625;28;20057;-59
2021/06/29 07:38:31;;;;;;;4.22;3.22;;;;;;;21.73;100.00;96172.59;4984543;28;20130;-61
2021/06/29 07:40:59;;;;;;;3.80;3.20;;;;;;;21.68;100.00;96166.25;4973687;28;20034;-60
2021/06/29 07:43:29;;;;;;;3.53;3.17;;;;;;;21.75;100.00;96151.72;4995839;28;20084;-59
2021/06/29 07:45:57;;;;;;;4.82;3.17;;;;;;;21.92;100.00;96156.50;4991220;28;20069;-60
2021/06/29 07:48:26;;;;;;;4.40;3.33;;;;;;;21.96;100.00;96149.66;5009048;28;20038;-60
2021/06/29 07:50:54;;;;;;;3.53;3.20;;;;;;;21.27;100.00;96149.69;4995783;28;20072;-60
2021/06/29 07:53:23;;;;;;;3.78;3.17;;;;;;;21.39;100.00;96147.13;5000686;28;20077;-60
2021/06/29 07:55:52;;;;;;;3.72;3.03;;;;;;;20.92;100.00;96127.91;4997392;28;20073;-59
2021/06/29 07:58:20;;;;;;;3.25;2.95;;;;;;;21.06;100.00;96128.63;5007966;28;20730;-60
2021/06/29 08:00:55;;;;;;;3.78;3.38;;;;;;;21.13;100.00;96125.84;4992535;28;20062;-60
2021/06/29 08:03:25;;;;;;;4.88;3.60;;;;;;;20.82;100.00;96122.19;5000762;28;20061;-60
2021/06/29 08:05:53;;;;;;;3.13;2.78;;;;;;;21.67;100.00;96106.38;5002162;28;20444;-60
2021/06/29 08:08:22;;;;;;;3.90;3.10;;;;;;;21.96;100.00;96112.06;5002937;28;20072;-60
2021/06/29 08:10:51;;;;;;;3.10;2.83;;;;;;;22.08;100.00;96107.56;4995519;28;20093;-61
2021/06/29 08:13:19;;;;;;;4.35;3.20;;;;;;;22.04;100.00;96104.50;4975543;28;20686;-60
2021/06/29 08:15:48;;;;;;;2.90;2.60;;;;;;;21.26;100.00;96091.69;4990025;28;20392;-60
2021/06/29 08:18:17;;;;;;;3.13;2.80;;;;;;;21.68;100.00;96093.78;4993033;28;20030;-61
2021/06/29 08:20:47;;;;;;;4.20;2.70;;;;;;;21.96;100.00;96090.59;5008547;28;20042;-60
2021/06/29 08:23:15;;;;;;;6.57;3.10;;;;;;;21.58;100.00;96085.47;4996583;28;20030;-61
2021/06/29 08:25:44;;;;;;;4.07;2.70;;;;;;;21.92;100.00;96094.75;5003271;28;20080;-61
2021/06/29 08:28:13;;;;;;;4.65;2.90;;;;;;;22.09;100.00;96095.78;5002806;28;20504;-61
2021/06/29 08:30:42;;;;;;;3.10;2.65;;;;;;;22.00;100.00;96086.41;5005007;28;20041;-61
2021/06/29 08:33:12;;;;;;;2.88;2.50;;;;;;;22.38;100.00;96090.69;4994171;28;20038;-61
2021/06/29 08:35:43;;;;;;;4.97;2.50;;;;;;;22.69;100.00;96084.25;5000636;28;20069;-61
2021/06/29 08:38:13;;;;;;;4.53;2.95;;;;;;;22.88;100.00;96072.38;4994449;28;20542;-61
2021/06/29 08:40:42;;;;;;;3.33;2.60;;;;;;;23.24;100.00;96069.72;4995233;28;20088;-61
2021/06/29 08:43:12;;;;;;;6.65;3.00;;;;;;;23.33;100.00;96063.78;4973194;28;20082;-61
2021/06/29 08:45:40;;;;;;;3.08;2.30;;;;;;;23.36;100.00;96062.47;4990605;28;20456;-61
2021/06/29 08:48:09;;;;;;;3.38;2.75;;;;;;;23.71;100.00;96059.78;4977488;28;20070;-61
2021/06/29 08:50:39;;;;;;;2.65;2.30;;;;;;;23.79;100.00;96056.69;4985923;28;20041;-61
2021/06/29 08:53:12;;;;;;;2.40;2.20;;;;;;;23.81;100.00;96057.28;4988577;28;20077;-61
2021/06/29 08:55:43;;;;;;;2.45;2.25;;;;;;;23.82;100.00;96048.16;4971751;28;20089;-61
2021/06/29 08:58:11;;;;;;;3.47;2.65;;;;;;;23.79;100.00;96039.72;4995230;28;20069;-61
2021/06/29 09:00:40;;;;;;;2.30;2.08;;;;;;;23.46;100.00;96036.59;4999965;28;20065;-61
2021/06/29 09:03:08;;;;;;;2.45;2.25;;;;;;;23.72;100.00;96033.66;4997150;28;20080;-60
2021/06/29 09:05:37;;;;;;;2.72;2.10;;;;;;;24.25;100.00;96027.13;4992622;28;20089;-61
2021/06/29 09:08:09;;;;;;;2.30;2.08;;;;;;;24.54;100.00;96031.47;4989984;28;20066;-61
2021/06/29 09:10:39;;;;;;;2.33;2.13;;;;;;;24.43;100.00;96026.94;4989930;28;20073;-60
2021/06/29 09:13:08;;;;;;;3.53;2.00;;;;;;;24.62;100.00;96017.59;5003198;28;20100;-61
2021/06/29 09:15:39;;;;;;;2.80;2.30;;;;;;;24.50;100.00;96007.94;4988791;28;20078;-61
2021/06/29 09:18:18;;;;;;;;;;;;;;;24.09;100.00;96007.19;4971920;28;20065;-61
2021/06/29 09:20:58;;;;;;;2.30;2.10;;;;;;;23.68;100.00;96011.78;4967672;28;24525;-60
2021/06/29 09:23:29;;;;;;;2.97;2.05;;;;;;;24.66;100.00;96014.41;4966486;28;20058;-61
2021/06/29 09:25:59;;;;;;;2.00;1.80;;;;;;;24.09;100.00;96012.59;4972270;28;20433;-62
2021/06/29 09:28:31;;;;;;;6.90;2.30;;;;;;;24.01;100.00;96012.94;5003180;28;20073;-62
2021/06/29 09:31:03;;;;;;;1.70;1.60;;;;;;;24.25;100.00;96009.09;4990717;28;20719;-62
2021/06/29 09:33:33;;;;;;;1.83;1.60;;;;;;;24.23;100.00;96008.53;4997659;28;20069;-62
2021/06/29 09:36:03;;;;;;;1.90;1.70;;;;;;;24.21;100.00;96002.56;4974082;28;20058;-62
2021/06/29 09:38:35;;;;;;;2.38;1.80;;;;;;;24.43;100.00;96000.00;4983554;28;20076;-62
2021/06/29 09:41:05;;;;;;;2.10;1.40;;;;;;;24.21;100.00;95990.97;4991191;28;20089;-62
2021/06/29 09:43:36;;;;;;;1.77;1.67;;;;;;;24.21;100.00;95983.69;4995300;28;20538;-63
2021/06/29 09:46:07;;;;;;;2.15;1.95;;;;;;;24.13;100.00;95974.13;4985931;28;20432;-62
2021/06/29 09:48:38;;;;;;;1.58;1.48;;;;;;;24.10;100.00;95971.91;5003044;28;20072;-62
2021/06/29 09:51:12;;;;;;;3.88;1.85;;;;;;;25.05;100.00;95954.06;4973868;28;20482;-62
2021/06/29 09:53:43;;;;;;;2.25;1.60;;;;;;;24.68;100.00;95961.06;4977163;28;20112;-62
2021/06/29 09:56:14;;;;;;;1.95;1.67;;;;;;;24.30;100.00;95955.31;4987337;28;20058;-62
2021/06/29 09:58:45;;;;;;;2.10;1.67;;;;;;;24.38;100.00;95948.69;4986733;28;20101;-62
2021/06/29 10:01:18;;;;;;;1.77;1.67;;;;;;;24.22;100.00;95944.91;4993054;28;20154;-62
2021/06/29 10:03:50;;;;;;;1.90;1.58;;;;;;;24.37;100.00;95942.47;4989426;28;20062;-62
2021/06/29 10:06:20;;;;;;;2.13;1.55;;;;;;;24.43;100.00;95943.41;4985650;28;20058;-62
2021/06/29 10:08:51;;;;;;;1.50;1.40;;;;;;;24.51;100.00;95936.81;4997136;28;20058;-62
2021/06/29 10:11:25;;;;;;;1.42;1.33;;;;;;;24.79;100.00;95928.59;4988013;28;20505;-62
2021/06/29 10:14:00;;;;;;;4.18;1.70;;;;;;;24.54;100.00;95936.31;4971996;28;20062;-62
2021/06/29 10:16:31;;;;;;;1.65;1.30;;;;;;;24.30;100.00;95931.06;4996320;28;20527;-62
2021/06/29 10:21:48;;;;;;;1.80;1.70;;;;;;;24.75;100.00;95921.25;4997359;28;20520;-62
2021/06/29 10:24:20;;;;;;;1.67;1.58;;;;;;;25.05;100.00;95905.50;4977130;28;20441;-62
2021/06/29 10:26:50;;;;;;;1.88;1.67;;;;;;;24.93;100.00;95917.47;4978995;28;20513;-62
2021/06/29 10:29:19;;;;;;;;;;;;;;;24.66;100.00;95915.47;4996430;28;20070;-63
2021/06/29 10:31:49;;;;;;;2.15;1.50;;;;;;;24.72;100.00;95902.88;4992108;28;19964;-62
2021/06/29 10:34:18;;;;;;;;;;;;;;;24.77;100.00;95895.66;5006508;28;20078;-62
2021/06/29 10:36:47;;;;;;;1.67;1.50;;;;;;;24.79;100.00;95884.63;4971196;28;19953;-62
2021/06/29 10:39:19;;;;;;;1.85;1.65;;;;;;;25.12;100.00;95875.69;4971134;28;20080;-63
2021/06/29 10:41:50;;;;;;;2.67;1.73;;;;;;;24.79;100.00;95877.34;4979908;28;20058;-62
2021/06/29 10:44:19;;;;;;;1.92;1.70;;;;;;;25.38;100.00;95882.19;4990290;28;20073;-62
2021/06/29 10:46:50;;;;;;;3.40;1.85;;;;;;;25.24;100.00;95879.06;4988458;28;20093;-62
2021/06/29 10:49:36;;;;;;;1.88;1.63;;;;;;;25.35;100.00;95869.19;5002146;28;20081;-62
2021/06/29 10:52:07;;;;;;;2.40;1.70;;;;;;;25.06;100.00;95865.84;4988063;28;20112;-61
2021/06/29 10:54:48;;;;;;;1.55;1.35;;;;;;;24.98;100.00;95867.09;4972771;28;20144;-62
2021/06/29 10:57:18;;;;;;;2.13;1.67;;;;;;;24.84;100.00;95855.88;4962510;28;20066;-62
2021/06/29 10:59:49;;;;;;;2.30;2.08;;;;;;;25.00;100.00;95856.88;4979438;28;20551;-62
2021/06/29 11:02:34;;;;;;;2.03;1.80;;;;;;;25.17;100.00;95845.22;4987695;28;20437;-62
2021/06/29 11:05:05;;;;;;;2.75;2.10;;;;;;;25.57;100.00;95844.88;4997548;28;20059;-62
2021/06/29 11:07:42;;;;;;;2.47;1.92;;;;;;;25.68;100.00;95837.69;4991372;28;20524;-62
2021/06/29 11:10:27;;;;;;;2.65;2.00;;;;;;;25.10;100.00;95831.91;4985297;28;20082;-62
2021/06/29 11:12:57;;;;;;;2.42;1.98;;;;;;;25.70;100.00;95825.53;4985711;28;20069;-62
2021/06/29 11:15:44;;;;;;;2.15;1.55;;;;;;;25.57;100.00;95818.69;4999603;28;20480;-63
2021/06/29 11:18:13;;;;;;;2.10;1.90;;;;;;;25.56;100.00;95800.03;4974783;28;20081;-62
2021/06/29 11:20:45;;;;;;;2.33;2.05;;;;;;;25.78;100.00;95802.69;4985550;28;20076;-62
2021/06/29 11:23:19;;;;;;;2.40;2.20;;;;;;;25.82;100.00;95795.72;4988491;28;20074;-62
2021/06/29 11:25:54;;;;;;;3.00;2.10;;;;;;;25.67;100.00;95790.13;4987024;28;20082;-62
2021/06/29 11:28:44;;;;;;;2.50;1.90;;;;;;;25.63;100.00;95794.41;4988537;28;20473;-62
2021/06/29 11:31:25;;;;;;;3.30;2.10;;;;;;;25.87;100.00;95789.53;5000571;28;21825;-62
2021/06/29 11:33:56;;;;;;;2.38;2.17;;;;;;;25.50;100.00;95791.06;4990960;28;20528;-63
2021/06/29 11:36:55;;;;;;;2.20;2.00;;;;;;;25.68;100.00;95789.06;4999486;28;20066;-62
2021/06/29 11:39:33;;;;;;;2.58;1.90;;;;;;;25.61;100.00;95783.88;4971491;28;20071;-63
2021/06/29 11:42:11;;;;;;;2.08;1.90;;;;;;;25.56;100.00;95770.31;4980891;28;20072;-62
2021/06/29 11:44:43;;;;;;;3.00;1.85;;;;;;;25.64;100.00;95775.28;4991888;28;20074;-63
2021/06/29 11:47:13;;;;;;;2.65;2.15;;;;;;;25.40;100.00;95768.56;4996857;28;20074;-63
2021/06/29 11:49:53;;;;;;;2.75;2.08;;;;;;;25.76;100.00;95757.00;4992127;28;20074;-62
2021/06/29 11:52:27;;;;;;;3.17;1.90;;;;;;;25.76;100.00;95757.00;4993849;28;20086;-63
2021/06/29 11:55:01;;;;;;;2.67;1.85;;;;;;;25.90;100.00;95757.41;4984853;28;20066;-62
2021/06/29 11:57:34;;;;;;;2.20;2.00;;;;;;;26.43;100.00;95750.19;5005428;28;20057;-63
2021/06/29 12:00:16;;;;;;;2.03;1.83;;;;;;;26.49;100.00;95742.94;4974719;28;20544;-62
2021/06/29 12:02:44;;;;;;;2.10;1.90;;;;;;;26.07;100.00;95724.03;4975957;28;20070;-63
2021/06/29 12:05:17;;;;;;;2.20;2.00;;;;;;;25.90;100.00;95713.38;4981740;28;20070;-63
2021/06/29 12:07:46;;;;;;;2.03;1.85;;;;;;;26.11;100.00;95708.91;4969821;28;20551;-62
2021/06/29 12:10:17;;;;;;;1.80;1.60;;;;;;;26.22;100.00;95702.47;4969257;28;20074;-62
2021/06/29 12:12:48;;;;;;;3.05;1.65;;;;;;;26.17;100.00;95700.56;4968012;28;20085;-62
2021/06/29 12:15:19;;;;;;;1.80;1.70;;;;;;;25.89;100.00;95706.34;4966837;28;20097;-62
2021/06/29 12:18:07;;;;;;;4.20;1.90;;;;;;;26.33;100.00;95695.25;4968774;28;20066;-62
2021/06/29 12:20:37;;;;;;;1.88;1.70;;;;;;;26.40;100.00;95685.84;4976185;28;20081;-63